Share

Alpine Airstrip, AK

Nuiqsut (PAQT) Elev 39 ft | 70.21 °N, 150.99 °W | Change Station

Current weather conditions updated 15 minutes ago

Overcast
Overcast
23 °F
Feels Like 14 °F
N
8
Wind Variable Wind from SSW
Sunrise 5:50 AM
Sunset 10:19 PM
Moon Waning Gibbous

Tomorrow is forecast to be Cooler than today.

Pressure 29.97 in
Visibility 10.0 miles
Clouds Mostly Cloudy 1100 ft
Overcast 1800 ft
Windchill 14 °F
Dew Point 22 °F
Humidity 96%
Rainfall 0.00 in
Snow Depth Not available.
UV 1 out of 16
Pollen Not available.
Air Quality Not available.
Flu Activity Sporadic
SPECI PAQT 170115Z AUTO 20007KT 10SM BKN011 OVC018 M05/M06 A2997 RMK AO2 T10501056 TSNO

More Conditions Fewer Conditions

Pressure 29.97 in
Visibility 10.0 miles
Clouds Mostly Cloudy 1100 ft
Overcast 1800 ft
Windchill 14 °F
Dew Point 22 °F
Humidity 96%
Rainfall 0.00 in
Snow Depth Not available.
UV 1 out of 16
Pollen Not available.
Air Quality Not available.
Flu Activity Sporadic
SPECI PAQT 170115Z AUTO 20007KT 10SM BKN011 OVC018 M05/M06 A2997 RMK AO2 T10501056 TSNO

More Conditions Fewer Conditions

10-Day Forecast

Almanac

Astronomy

Apr. 16, 2014 Rise Set
Actual Time 5:50 AM AKDT 10:19 PM AKDT
Civil Twilight 4:23 AM AKDT 11:49 PM AKDT
Nautical Twilight Sun does not rise Sun does not rise
Astronomical Twilight Sun does not rise Sun does not rise
Moon No Moon Rise 5:59 AM AKDT (4/16)
Length of Visible Light 19h 26m
Length of Day
16h 29m
Tomorrow will be 9m 54s longer.
Waning Gibbous, 96% of the Moon is Illuminated
Today
Waning Gibbous
Apr 22
Last Quarter
Apr 29
New
May 6
First Quarter
May 14
Full

Today's Extremes

State Highs State Lows

Community

  • symphony in blue....
    symphony in blue....
  • Dawn Surprise
    Dawn Surprise
  • Yucca delight
    Yucca delight
  • Sunset inside of the Ocean
    Sunset inside of the Ocean
  • Lunar eclipse 15 April 2014
    Lunar eclipse 15 April 2014

WunderPhotos

Upload Photos

1,701,787 photos uploaded!

WunderBlogs® & News

Nearby

Snow Depth

Station Depth Elevation
Imnaviat Creek 26 in 3050 ft
Atigun Pass 37 in 4800 ft
Coldfoot 28 in 1040 ft
Gobblers Knob 9 in 2030 ft
Fort Yukon 18 in 430 ft

Coastal Water Temperatures

Place Temperature
No Stations Reporting

Earthquake Activity

City Distance Mag. Time & Date
No recent earthquake activity has been reported nearby.
Minimum magnitude displayed is 2.5.

Nearby Weather Stations

Station Location Temp. Windchill Dew Point Humidity Wind Precip. Elev Updated Type
HADS JUDY CREEK NEAR NUIQSUT 17W , Barrow, AK 26 °F 26 °F - - North  at  - 0.00 in / hr 42 ft 4:00 PM AKDT MADIS

Show More Stations Show Fewer Stations

What do you think?

We're not finished. Please let us know what you like, what you don't like, and what you are still missing.